Pagrindinis puslapis
METAR-TAF:

METAR-TAF

Oro uostai :

Batmanas, Turkija

platuma: 37-52N, ilguma: 041-10E, Aukštis: 540 m

Dabartinis oras

Ataskaita buvo paskelbta 41 minutes, ne 03:20 UTC
Vėjas 3 kt iš Pietų/Pietvakarių, svyruoja nuo Pietų ir Pietvakarių
Temperatūra 21°C
Drėgmė 60%
Slėgis 1002 hPa
Matomumas 10 km arba daugiau
nėra debesų žemiau 1500 m ir nėra kamuolinių lietaus debesų

METAR: LTCJ 150320Z 20003KT 170V230 CAVOK 21/13 Q1002 RMK RWY20 18005KT SKC

Laikas: 07:01 (04:01 UTC)

Prognozė

Ataskaita buvo paskelbta 5 valandos ir 21 minutes, ne 22:40 UTC
Prognozė galioja nuo 15 metu 00 UTC su 15 metu 24 UTC
Vėjas 2 kt nuo kintamojo kryptimis
Matomumas 10 km arba daugiau
nėra debesų žemiau 1500 m ir nėra kamuolinių lietaus debesų

TAF: LTCJ 142240Z 1500/1524 VRB02KT CAVOK

Orai ataskaitas ir orų prognozės (METAR, TAF).

turimą stotys yra geltonos ir raudonos taškus žemėlapyje.

Perkelti pele per norėdami pamatyti stoties vardą.

Tada spustelėkite, norėdami matyti oro stebėjimo ir prognozės.

Norėdami pakeisti žemėlapį: spustelėkite ant žalios mygtukų su juodo kryžiaus žemyn,; žalią mygtuką su brūkšneliu, jei norite nutolinti; arba žalių rodyklių gretimoms žemėlapius.


METAR-TAF: